Time;durP1;ratioP1;P1;durP2;ratioP2;P2;SDS_P1;SDS_P2;PMS_P1;PMS_P2;Temp;Humidity;BMP_temperature;BMP_pressure;BME280_temperature;BME280_humidity;BME280_pressure;Samples;Min_cycle;Max_cycle;Signal;HPM_P1;HPM_P2
2021/12/19 00:09:39;;;;;;;32.17;10.35;;;;;;;4.53;63.12;101452.91;5017119;28;20072;-81
2021/12/19 00:12:05;;;;;;;28.65;9.57;;;;;;;4.53;63.63;101452.03;5014375;28;20433;-79
2021/12/19 00:14:30;;;;;;;22.25;9.52;;;;;;;4.53;63.10;101452.91;5017135;28;20030;-79
2021/12/19 00:16:56;;;;;;;22.02;9.00;;;;;;;4.54;63.67;101456.44;5015250;28;20037;-79
2021/12/19 00:19:21;;;;;;;17.33;8.52;;;;;;;4.56;63.26;101457.22;5015064;28;20452;-79
2021/12/19 00:21:47;;;;;;;27.33;9.07;;;;;;;4.55;63.33;101458.19;5016322;28;20030;-79
2021/12/19 00:24:13;;;;;;;21.05;9.07;;;;;;;4.53;63.06;101452.91;5014727;28;20057;-79
2021/12/19 00:26:38;;;;;;;21.60;9.20;;;;;;;4.50;63.26;101453.03;5017162;28;20100;-80
2021/12/19 00:29:04;;;;;;;21.80;10.48;;;;;;;4.46;63.52;101461.25;5014595;28;20463;-79
2021/12/19 00:31:31;;;;;;;22.60;10.52;;;;;;;4.40;63.26;101447.22;5014359;28;20555;-79
2021/12/19 00:33:57;;;;;;;24.33;11.82;;;;;;;4.45;63.17;101448.84;5015220;28;20108;-81
2021/12/19 00:36:24;;;;;;;20.45;10.77;;;;;;;4.45;63.44;101448.84;5014609;28;20025;-81
2021/12/19 00:38:50;;;;;;;29.17;12.07;;;;;;;4.37;63.46;101444.69;5018899;28;20480;-80
2021/12/19 00:41:16;;;;;;;26.23;11.73;;;;;;;4.37;63.27;101436.72;5014883;28;20033;-79
2021/12/19 00:44:22;;;;;;;30.95;10.52;;;;;;;4.29;63.53;101433.53;5014646;28;20026;-79
2021/12/19 00:46:50;;;;;;;22.67;10.20;;;;;;;4.26;63.38;101433.66;5012908;28;20057;-79
2021/12/19 00:49:16;;;;;;;25.65;11.80;;;;;;;4.21;64.01;101421.47;4999945;28;20489;-79
2021/12/19 00:51:42;;;;;;;16.92;10.50;;;;;;;4.20;63.96;101417.94;5015240;28;20104;-80
2021/12/19 00:54:09;;;;;;;23.73;10.30;;;;;;;4.01;63.66;101411.66;5014205;28;20109;-79
2021/12/19 00:56:37;;;;;;;20.27;9.70;;;;;;;4.02;64.10;101415.19;4997043;28;20052;-79
2021/12/19 00:59:03;;;;;;;27.42;10.25;;;;;;;3.89;64.53;101395.34;5014827;28;20067;-79
2021/12/19 01:01:28;;;;;;;20.52;9.13;;;;;;;3.85;64.62;101395.47;5015294;28;20033;-79
2021/12/19 01:03:54;;;;;;;17.20;8.48;;;;;;;3.76;64.21;101395.84;5016304;28;20017;-79
2021/12/19 01:06:20;;;;;;;22.35;8.43;;;;;;;3.72;64.82;101404.03;5016103;28;20054;-79
2021/12/19 01:08:47;;;;;;;17.73;8.50;;;;;;;3.66;65.27;101409.59;4996344;28;20084;-78
2021/12/19 01:11:13;;;;;;;13.40;8.60;;;;;;;3.57;65.81;101399.31;5014118;28;20033;-79
2021/12/19 01:13:39;;;;;;;13.77;8.52;;;;;;;3.46;66.26;101391.75;5015002;28;20030;-79
2021/12/19 01:16:05;;;;;;;18.25;8.18;;;;;;;3.41;66.64;101398.19;5015934;28;20041;-81
2021/12/19 01:18:30;;;;;;;14.95;9.20;;;;;;;3.20;67.00;101390.16;5015379;28;20022;-80
2021/12/19 01:20:56;;;;;;;12.05;7.32;;;;;;;3.15;67.39;101386.78;5015873;28;20034;-80
2021/12/19 01:23:22;;;;;;;15.70;9.13;;;;;;;3.11;68.04;101387.84;5014144;28;20113;-81
2021/12/19 01:25:49;;;;;;;13.32;7.78;;;;;;;3.04;68.19;101381.03;5013399;28;20046;-81
2021/12/19 01:28:15;;;;;;;18.42;7.80;;;;;;;2.94;68.64;101376.09;5018138;28;20026;-79
2021/12/19 01:30:52;;;;;;;15.90;7.50;;;;;;;2.87;68.76;101380.81;5020499;28;20036;-79
2021/12/19 01:33:19;;;;;;;14.80;8.05;;;;;;;2.88;69.13;101377.22;5024910;28;20057;-81
2021/12/19 01:35:45;;;;;;;13.25;7.57;;;;;;;2.92;69.37;101384.16;5019826;28;20110;-78
2021/12/19 01:38:10;;;;;;;14.45;7.70;;;;;;;2.95;69.71;101378.72;5022841;28;20033;-80
2021/12/19 01:40:36;;;;;;;18.60;8.30;;;;;;;2.99;69.81;101379.47;5013792;28;20025;-80
2021/12/19 01:43:03;;;;;;;14.73;7.88;;;;;;;2.99;69.73;101382.13;5014644;28;20480;-80
2021/12/19 01:45:32;;;;;;;16.75;8.23;;;;;;;3.03;69.72;101376.63;5017155;28;20124;-78
2021/12/19 01:47:59;;;;;;;14.65;8.43;;;;;;;3.13;69.75;101372.69;5014286;28;20034;-79
2021/12/19 01:50:25;;;;;;;20.65;9.02;;;;;;;3.11;69.52;101350.66;5013501;28;20026;-79
2021/12/19 01:52:51;;;;;;;32.20;9.48;;;;;;;3.08;69.46;101348.09;5013203;28;20083;-79
2021/12/19 01:55:17;;;;;;;17.95;8.45;;;;;;;3.17;69.45;101352.19;5014053;28;20101;-80
2021/12/19 01:57:42;;;;;;;27.25;8.45;;;;;;;3.24;69.52;101349.22;5017072;28;20391;-79
2021/12/19 02:00:18;;;;;;;14.23;8.00;;;;;;;3.30;69.60;101348.97;5017015;28;20033;-79
2021/12/19 02:02:43;;;;;;;13.60;8.13;;;;;;;3.37;69.27;101340.75;5016882;28;20057;-80
2021/12/19 02:05:09;;;;;;;14.50;8.35;;;;;;;3.45;69.09;101333.34;5016626;28;20088;-79
2021/12/19 02:07:34;;;;;;;24.95;8.95;;;;;;;3.52;68.76;101326.81;5017292;28;20029;-79
2021/12/19 02:10:00;;;;;;;54.47;10.05;;;;;;;3.55;68.41;101322.25;5017057;28;20365;-79
2021/12/19 02:12:25;;;;;;;14.70;9.00;;;;;;;3.56;67.98;101318.66;5016673;28;20030;-79
2021/12/19 02:14:50;;;;;;;15.50;7.65;;;;;;;3.55;67.72;101316.06;5016511;28;20034;-79
2021/12/19 02:17:17;;;;;;;11.60;7.55;;;;;;;3.56;67.15;101310.69;5016971;28;20044;-80
2021/12/19 02:19:42;;;;;;;12.80;6.53;;;;;;;3.56;67.39;101312.47;4998734;28;20117;-80
2021/12/19 02:22:08;;;;;;;12.55;6.80;;;;;;;3.56;67.47;101315.13;5016748;28;20057;-79
2021/12/19 02:24:34;;;;;;;16.30;7.38;;;;;;;3.54;67.22;101320.53;4998909;28;20030;-79
2021/12/19 02:27:00;;;;;;;13.18;7.35;;;;;;;3.52;67.42;101311.75;5015849;28;20062;-79
2021/12/19 02:29:25;;;;;;;9.57;6.15;;;;;;;3.58;67.44;101303.50;5017695;28;20100;-79
2021/12/19 02:31:51;;;;;;;11.73;6.93;;;;;;;3.63;67.19;101300.66;5016178;28;20080;-79
2021/12/19 02:34:21;;;;;;;12.68;7.38;;;;;;;3.62;67.36;101296.25;5016584;28;20104;-79
2021/12/19 02:36:58;;;;;;;12.98;7.78;;;;;;;3.56;66.89;101291.22;4999795;28;20026;-80
2021/12/19 02:50:13;;;;;;;13.73;7.28;;;;;;;3.67;67.33;101284.50;5016951;28;20045;-79
2021/12/19 02:52:38;;;;;;;12.35;6.47;;;;;;;3.70;67.20;101278.22;5015941;28;20553;-79
2021/12/19 02:55:06;;;;;;;10.68;6.53;;;;;;;3.73;66.91;101278.91;5015416;28;20025;-80
2021/12/19 02:57:32;;;;;;;9.30;6.43;;;;;;;3.75;66.78;101284.19;5015834;28;20041;-79
2021/12/19 02:59:57;;;;;;;12.18;7.05;;;;;;;3.69;66.30;101273.81;5016238;28;20032;-79
2021/12/19 03:02:24;;;;;;;14.77;6.95;;;;;;;3.75;66.68;101279.75;5016173;28;20021;-79
2021/12/19 03:04:55;;;;;;;11.73;6.35;;;;;;;3.83;66.14;101282.03;5015693;28;20044;-79
2021/12/19 03:07:21;;;;;;;14.70;6.43;;;;;;;3.81;66.44;101287.44;5016302;28;20104;-79
2021/12/19 03:12:54;;;;;;;17.45;7.47;;;;;;;3.89;66.24;101273.81;5015702;28;20061;-79
2021/12/19 03:18:13;;;;;;;15.07;6.72;;;;;;;4.01;65.58;101262.63;5016131;28;20028;-78
2021/12/19 03:20:41;;;;;;;12.93;7.53;;;;;;;4.11;65.31;101273.72;5016927;28;20029;-79
2021/12/19 03:23:08;;;;;;;13.38;6.43;;;;;;;4.17;65.43;101261.00;5017616;28;20439;-80
2021/12/19 03:25:35;;;;;;;12.18;7.63;;;;;;;4.10;65.42;101256.88;5018214;28;20053;-79
2021/12/19 03:28:03;;;;;;;14.07;7.70;;;;;;;4.18;65.10;101252.09;5016984;28;20042;-79
2021/12/19 03:30:29;;;;;;;12.00;7.13;;;;;;;4.23;64.94;101250.09;5016988;28;20034;-79
2021/12/19 03:32:55;;;;;;;18.25;8.82;;;;;;;4.19;64.71;101251.16;5015084;28;20057;-79
2021/12/19 03:35:23;;;;;;;16.65;7.65;;;;;;;4.24;64.66;101254.47;5015815;28;20097;-79
2021/12/19 03:37:50;;;;;;;22.02;8.45;;;;;;;4.16;64.44;101240.63;5014747;28;20026;-79
2021/12/19 03:40:22;;;;;;;19.70;9.52;;;;;;;4.16;64.54;101243.28;5015129;28;20085;-79
2021/12/19 03:42:50;;;;;;;24.20;9.40;;;;;;;4.17;64.83;101241.50;5015909;28;20022;-81
2021/12/19 03:45:18;;;;;;;18.88;9.82;;;;;;;4.19;65.37;101240.50;5015593;28;20029;-80
2021/12/19 03:47:45;;;;;;;21.98;12.15;;;;;;;4.22;65.39;101243.03;5015233;28;20063;-79
2021/12/19 03:50:14;;;;;;;18.63;10.93;;;;;;;4.29;64.95;101244.47;5015267;28;20022;-79
2021/12/19 03:52:39;;;;;;;17.20;10.20;;;;;;;4.35;64.68;101232.69;5016645;28;20018;-79
2021/12/19 03:55:06;;;;;;;20.13;11.52;;;;;;;4.37;64.51;101238.81;5015666;28;20029;-81
2021/12/19 03:57:31;;;;;;;24.23;9.13;;;;;;;4.38;64.58;101229.88;5014968;28;20026;-79
2021/12/19 03:59:57;;;;;;;19.48;9.77;;;;;;;4.38;64.56;101236.06;5015715;28;20091;-80
2021/12/19 04:02:27;;;;;;;21.20;9.88;;;;;;;4.36;64.14;101231.75;5016228;28;20090;-80
2021/12/19 04:04:58;;;;;;;18.58;9.00;;;;;;;4.31;64.34;101223.13;5015750;28;20397;-80
2021/12/19 04:07:25;;;;;;;18.63;9.15;;;;;;;4.37;64.27;101226.34;5015042;28;20087;-80
2021/12/19 04:09:51;;;;;;;15.25;8.90;;;;;;;4.38;63.91;101228.06;5015042;28;20025;-80
2021/12/19 04:12:17;;;;;;;19.50;9.32;;;;;;;4.44;64.10;101236.72;5015492;28;20430;-80
2021/12/19 04:14:44;;;;;;;22.25;8.50;;;;;;;4.44;64.23;101223.38;4997807;28;20068;-80
2021/12/19 04:17:10;;;;;;;22.65;9.30;;;;;;;4.40;63.87;101220.88;5015040;28;20075;-80
2021/12/19 04:19:36;;;;;;;14.10;8.25;;;;;;;4.46;64.18;101222.41;5014614;28;20049;-79
2021/12/19 04:22:01;;;;;;;18.90;8.90;;;;;;;4.49;63.92;101224.94;4997391;28;20026;-80
2021/12/19 04:24:27;;;;;;;12.60;8.00;;;;;;;4.53;63.57;101228.28;5013970;28;20452;-81
2021/12/19 04:26:53;;;;;;;20.83;9.73;;;;;;;4.50;63.72;101223.97;4997365;28;20524;-80
2021/12/19 04:29:19;;;;;;;18.80;9.43;;;;;;;4.42;63.17;101219.94;5014698;28;20033;-80
2021/12/19 04:31:44;;;;;;;16.38;9.73;;;;;;;4.36;63.65;101227.28;5014431;28;20396;-80
2021/12/19 04:34:12;;;;;;;18.13;10.13;;;;;;;4.31;63.90;101217.81;5014392;28;20033;-80
2021/12/19 04:36:41;;;;;;;22.35;11.00;;;;;;;4.34;63.90;101215.00;5013892;28;20480;-80
2021/12/19 04:42:08;;;;;;;14.93;8.97;;;;;;;4.19;63.67;101202.38;5014453;28;20098;-80
2021/12/19 04:55:36;;;;;;;26.35;11.32;;;;;;;4.02;64.61;101204.94;5014099;28;20087;-80
2021/12/19 04:58:19;;;;;;;23.88;10.85;;;;;;;3.93;64.79;101198.25;5014918;28;20113;-79
2021/12/19 05:06:45;;;;;;;36.45;12.88;;;;;;;3.96;64.98;101197.22;5016417;28;20033;-79
2021/12/19 05:14:40;;;;;;;52.08;26.55;;;;;;;3.46;64.89;101167.53;5013836;28;20083;-80
2021/12/19 05:17:09;;;;;;;61.17;33.13;;;;;;;3.44;65.71;101188.03;5013287;28;20029;-79
2021/12/19 05:19:50;;;;;;;30.05;18.42;;;;;;;3.34;65.92;101184.03;5014107;28;20046;-80
2021/12/19 05:22:17;;;;;;;28.75;17.63;;;;;;;3.29;66.35;101193.06;4995642;28;20096;-79
2021/12/19 05:24:48;;;;;;;30.23;18.83;;;;;;;3.26;66.26;101181.72;5013112;28;20068;-79
2021/12/19 05:27:14;;;;;;;29.38;15.35;;;;;;;3.21;65.92;101187.19;5014037;28;20056;-79
2021/12/19 05:29:40;;;;;;;18.77;12.73;;;;;;;3.21;66.45;101178.41;5013226;28;20026;-79
2021/12/19 05:32:06;;;;;;;27.95;14.40;;;;;;;3.19;66.51;101175.78;5017002;28;20037;-79
2021/12/19 05:34:32;;;;;;;19.67;10.93;;;;;;;3.17;66.49;101148.41;4999103;28;20022;-79
2021/12/19 05:45:14;;;;;;;28.77;16.80;;;;;;;3.39;65.74;101144.84;5017113;28;20072;-79
2021/12/19 05:47:46;;;;;;;31.75;15.40;;;;;;;3.30;65.66;101143.44;5016672;28;20101;-80
2021/12/19 05:50:12;;;;;;;32.15;16.50;;;;;;;3.25;65.55;101137.44;5016873;28;20018;-80
2021/12/19 05:52:39;;;;;;;32.63;14.35;;;;;;;3.31;65.91;101153.13;5016940;28;20036;-81
2021/12/19 05:55:05;;;;;;;25.38;12.07;;;;;;;3.24;65.84;101151.69;5016613;28;20037;-79
2021/12/19 05:57:31;;;;;;;44.55;18.15;;;;;;;3.17;66.29;101153.72;5016066;28;20053;-80
2021/12/19 05:59:57;;;;;;;43.58;19.95;;;;;;;3.11;66.25;101150.47;5016884;28;20468;-79
2021/12/19 06:02:22;;;;;;;34.15;18.25;;;;;;;3.02;66.58;101146.41;5016169;28;20425;-79
2021/12/19 06:04:48;;;;;;;37.10;16.83;;;;;;;3.01;66.72;101143.81;5016443;28;20468;-78
2021/12/19 06:07:14;;;;;;;36.28;18.55;;;;;;;3.05;67.00;101145.41;5016280;28;20443;-81
2021/12/19 06:09:39;;;;;;;24.95;14.77;;;;;;;3.02;67.02;101150.84;5016066;28;20050;-79
2021/12/19 06:12:05;;;;;;;33.33;17.08;;;;;;;3.02;67.19;101142.88;5016432;28;20025;-80
2021/12/19 06:14:34;;;;;;;38.70;16.85;;;;;;;2.99;67.22;101145.66;5016300;28;20026;-81
2021/12/19 06:17:01;;;;;;;27.45;13.93;;;;;;;3.02;67.53;101135.78;4998472;28;20084;-81
2021/12/19 06:19:27;;;;;;;89.35;39.13;;;;;;;3.08;67.51;101150.59;5016192;28;20084;-81
2021/12/19 06:21:53;;;;;;;49.83;25.92;;;;;;;3.15;67.55;101150.25;5015603;28;20034;-80
2021/12/19 06:24:19;;;;;;;64.82;28.85;;;;;;;3.23;67.26;101145.50;5015827;28;20487;-81
2021/12/19 06:26:44;;;;;;;44.17;21.92;;;;;;;3.38;66.64;101140.44;5015597;28;20121;-81
2021/12/19 06:29:10;;;;;;;34.33;13.98;;;;;;;3.44;66.58;101134.84;4997820;28;20038;-78
2021/12/19 06:31:36;;;;;;;28.75;14.07;;;;;;;3.52;66.50;101135.38;5015810;28;20029;-81
2021/12/19 06:34:01;;;;;;;28.80;14.10;;;;;;;3.57;66.31;101133.38;4998086;28;20057;-79
2021/12/19 06:36:27;;;;;;;34.83;14.90;;;;;;;3.56;65.81;101126.31;5015875;28;20033;-82
2021/12/19 06:38:52;;;;;;;27.65;15.30;;;;;;;3.53;65.78;101121.16;5018443;28;20530;-80
2021/12/19 06:41:19;;;;;;;33.40;15.13;;;;;;;3.58;66.15;101117.34;5016213;28;20017;-80
2021/12/19 06:43:45;;;;;;;23.70;13.63;;;;;;;3.51;65.82;101121.22;4998035;28;20026;-80
2021/12/19 06:46:10;;;;;;;27.85;14.75;;;;;;;3.60;66.04;101123.47;5016026;28;20099;-79
2021/12/19 06:48:36;;;;;;;25.27;14.60;;;;;;;3.52;65.90;101114.09;5015749;28;20057;-80
2021/12/19 06:51:01;;;;;;;25.25;14.07;;;;;;;3.64;65.49;101113.56;5016293;28;20096;-80
2021/12/19 06:53:27;;;;;;;44.58;15.77;;;;;;;3.67;65.33;101102.78;5015884;28;20030;-80
2021/12/19 06:55:52;;;;;;;30.77;15.57;;;;;;;3.75;65.48;101109.47;5015255;28;20057;-80
2021/12/19 06:58:18;;;;;;;33.75;15.88;;;;;;;3.75;65.02;101106.81;5015709;28;20352;-79
2021/12/19 07:00:44;;;;;;;31.38;16.23;;;;;;;3.86;65.12;101103.66;5015408;28;20030;-80
2021/12/19 07:03:11;;;;;;;33.50;17.33;;;;;;;3.90;65.09;101101.72;5015831;28;20456;-80
2021/12/19 07:05:37;;;;;;;28.65;15.38;;;;;;;3.88;64.58;101098.28;5015757;28;20045;-80
2021/12/19 07:08:03;;;;;;;38.10;16.58;;;;;;;3.77;64.71;101099.63;5016141;28;20080;-80
2021/12/19 07:10:28;;;;;;;35.95;17.23;;;;;;;3.82;64.84;101096.78;5015810;28;20034;-80
2021/12/19 07:12:54;;;;;;;37.08;15.18;;;;;;;3.94;65.07;101085.56;5015961;28;20061;-80
2021/12/19 07:15:19;;;;;;;31.58;14.90;;;;;;;3.89;64.46;101082.22;5015759;28;20057;-80
2021/12/19 07:17:45;;;;;;;31.52;14.90;;;;;;;3.96;64.69;101085.47;5016029;28;20026;-82
2021/12/19 07:20:11;;;;;;;26.48;14.40;;;;;;;3.90;64.21;101080.44;5015209;28;20034;-80
2021/12/19 07:22:37;;;;;;;34.60;15.43;;;;;;;4.02;64.58;101077.19;5015265;28;20403;-80
2021/12/19 07:25:03;;;;;;;38.90;16.45;;;;;;;3.97;64.51;101073.91;5014995;28;20037;-83
2021/12/19 07:27:29;;;;;;;34.85;16.15;;;;;;;4.08;64.84;101071.59;4996945;28;20400;-79
2021/12/19 07:29:57;;;;;;;31.77;12.27;;;;;;;4.17;64.14;101071.13;5014977;28;20137;-79
2021/12/19 07:32:23;;;;;;;25.88;14.10;;;;;;;4.16;64.07;101054.31;4997604;28;20087;-80
2021/12/19 07:34:49;;;;;;;20.45;12.48;;;;;;;4.28;63.83;101059.03;5014155;28;20510;-80
2021/12/19 07:37:15;;;;;;;29.25;13.85;;;;;;;4.18;63.77;101049.78;4997213;28;20457;-79
2021/12/19 07:39:52;;;;;;;28.02;12.85;;;;;;;4.22;63.81;101046.00;5013690;28;20101;-80
2021/12/19 07:42:18;;;;;;;26.92;13.00;;;;;;;4.27;63.82;101046.69;4996953;28;20029;-79
2021/12/19 07:44:44;;;;;;;29.65;13.57;;;;;;;4.28;63.75;101037.72;5014622;28;20562;-79
2021/12/19 07:47:10;;;;;;;42.45;24.35;;;;;;;4.25;63.83;101043.22;5014675;28;20022;-78
2021/12/19 07:49:36;;;;;;;27.33;14.45;;;;;;;4.17;63.57;101040.06;5014844;28;20053;-79
2021/12/19 07:52:03;;;;;;;33.15;14.23;;;;;;;4.19;63.94;101040.84;5013848;28;20037;-79
2021/12/19 07:54:28;;;;;;;26.40;14.20;;;;;;;4.20;64.43;101033.72;4995516;28;20033;-79
2021/12/19 07:56:54;;;;;;;26.17;15.27;;;;;;;4.24;64.40;101030.00;5014267;28;20025;-80
2021/12/19 07:59:19;;;;;;;40.67;15.52;;;;;;;4.17;64.50;101016.09;5014408;28;20018;-79
2021/12/19 08:01:45;;;;;;;23.95;12.73;;;;;;;4.20;64.63;101020.41;5014131;28;20022;-79
2021/12/19 08:04:10;;;;;;;24.85;13.75;;;;;;;4.22;64.80;101040.69;5014534;28;20073;-79
2021/12/19 08:06:36;;;;;;;30.73;17.33;;;;;;;4.15;65.61;101031.31;5014291;28;20052;-79
2021/12/19 08:09:10;;;;;;;34.83;20.13;;;;;;;4.23;65.40;101023.78;5014392;28;20022;-80
2021/12/19 08:11:40;;;;;;;37.00;20.08;;;;;;;4.12;65.91;101026.13;5014315;28;20464;-80
2021/12/19 08:14:11;;;;;;;28.10;17.48;;;;;;;4.12;66.31;101012.81;5015007;28;20098;-79
2021/12/19 08:16:37;;;;;;;35.42;19.35;;;;;;;4.17;66.27;101005.47;5017780;28;20101;-78
2021/12/19 08:19:03;;;;;;;24.88;15.38;;;;;;;4.30;66.49;101011.91;5015619;28;20064;-79
2021/12/19 08:21:29;;;;;;;27.50;14.80;;;;;;;4.39;66.35;101008.78;5013605;28;20021;-80
2021/12/19 08:23:58;;;;;;;27.13;14.63;;;;;;;4.57;65.81;101012.34;5013890;28;20060;-79
2021/12/19 08:26:24;;;;;;;22.35;13.05;;;;;;;4.56;65.36;101010.59;5013629;28;20038;-79
2021/12/19 08:28:50;;;;;;;30.40;15.75;;;;;;;4.66;65.76;100995.88;5014864;28;20420;-80
2021/12/19 08:31:15;;;;;;;23.90;14.40;;;;;;;4.74;65.92;101000.81;5014449;28;20119;-81
2021/12/19 08:33:41;;;;;;;27.00;13.85;;;;;;;4.86;65.42;100998.38;5014219;28;20061;-79
2021/12/19 08:36:07;;;;;;;29.95;16.00;;;;;;;4.95;65.27;101005.88;5014636;28;20080;-79
2021/12/19 08:38:33;;;;;;;33.55;15.23;;;;;;;4.97;64.96;100995.16;5013940;28;20110;-80
2021/12/19 08:40:59;;;;;;;24.75;12.85;;;;;;;5.07;65.05;100975.09;5015009;28;20072;-80
2021/12/19 08:43:26;;;;;;;19.05;12.30;;;;;;;5.24;64.63;100987.50;5015001;28;20499;-80
2021/12/19 08:45:51;;;;;;;21.17;11.73;;;;;;;5.17;64.58;100970.97;5014263;28;20403;-80
2021/12/19 08:48:18;;;;;;;26.95;11.98;;;;;;;5.27;64.26;100982.84;5014672;28;20033;-79
2021/12/19 08:50:45;;;;;;;20.65;12.10;;;;;;;5.36;64.21;100966.34;5014599;28;20061;-79
2021/12/19 08:53:10;;;;;;;27.17;12.65;;;;;;;5.38;64.02;100959.13;5015158;28;20022;-80
2021/12/19 08:55:36;;;;;;;26.98;11.30;;;;;;;5.59;63.64;100972.25;5014359;28;20048;-78
2021/12/19 08:58:02;;;;;;;20.70;11.23;;;;;;;5.65;63.40;100956.75;5015090;28;20452;-79
2021/12/19 09:00:28;;;;;;;27.88;15.57;;;;;;;5.76;63.02;100958.81;5013909;28;20036;-80
2021/12/19 09:02:55;;;;;;;17.88;11.18;;;;;;;5.83;62.57;100949.53;5014633;28;20101;-81
2021/12/19 09:05:22;;;;;;;25.88;11.73;;;;;;;5.83;61.94;100939.72;5017016;28;20087;-79
2021/12/19 09:07:50;;;;;;;17.92;10.50;;;;;;;5.77;62.52;100945.41;5017732;28;20030;-79
2021/12/19 09:10:16;;;;;;;19.35;11.32;;;;;;;5.82;62.56;100931.78;5018309;28;20022;-79
2021/12/19 09:12:41;;;;;;;21.38;10.73;;;;;;;5.80;62.46;100929.22;5018174;28;20111;-79
2021/12/19 09:15:07;;;;;;;19.67;11.45;;;;;;;5.96;62.39;100934.56;5017889;28;20021;-80
2021/12/19 09:17:32;;;;;;;20.98;10.40;;;;;;;6.08;62.50;100931.19;5017987;28;20039;-80
2021/12/19 09:19:58;;;;;;;16.25;9.63;;;;;;;6.07;61.61;100918.78;5017388;28;20501;-81
2021/12/19 09:22:24;;;;;;;15.82;10.77;;;;;;;6.08;61.73;100907.16;5018165;28;20025;-80
2021/12/19 09:24:49;;;;;;;18.67;11.63;;;;;;;6.19;62.33;100910.06;5017727;28;20030;-80
2021/12/19 09:27:15;;;;;;;18.40;11.30;;;;;;;6.12;61.96;100894.47;5017138;28;20065;-81
2021/12/19 09:29:41;;;;;;;20.30;10.13;;;;;;;6.36;61.36;100898.38;5017585;28;20026;-79
2021/12/19 09:32:06;;;;;;;25.80;10.52;;;;;;;6.31;61.20;100892.44;5017410;28;20101;-81
2021/12/19 09:34:33;;;;;;;18.83;10.60;;;;;;;6.51;61.15;100900.13;5020404;28;20100;-79
2021/12/19 09:36:59;;;;;;;22.40;11.10;;;;;;;6.58;60.27;100880.09;5018067;28;20025;-79
2021/12/19 09:39:26;;;;;;;24.15;9.15;;;;;;;6.72;59.50;100876.59;5017457;28;20033;-80
2021/12/19 09:41:59;;;;;;;15.63;9.60;;;;;;;6.76;58.73;100862.91;4999728;28;20037;-80
2021/12/19 09:44:25;;;;;;;19.63;10.45;;;;;;;6.71;58.77;100858.81;5017853;28;20022;-80
2021/12/19 09:46:50;;;;;;;24.02;11.30;;;;;;;6.74;58.91;100855.97;5018926;28;20034;-80
2021/12/19 09:49:20;;;;;;;18.08;10.27;;;;;;;6.76;58.68;100851.41;5001674;28;20113;-79
2021/12/19 09:51:48;;;;;;;22.00;9.93;;;;;;;6.74;58.18;100847.94;5018385;28;20030;-82
2021/12/19 09:54:14;;;;;;;20.05;9.93;;;;;;;6.73;58.72;100836.38;5021243;28;20029;-81
2021/12/19 09:56:42;;;;;;;23.60;11.68;;;;;;;6.92;58.49;100838.75;5018283;28;20495;-79
2021/12/19 09:59:14;;;;;;;17.25;9.30;;;;;;;7.03;58.41;100836.28;5025895;28;20026;-80
2021/12/19 10:01:40;;;;;;;15.45;9.95;;;;;;;6.91;57.90;100829.06;5028361;28;20026;-81
2021/12/19 10:04:35;;;;;;;23.67;11.57;;;;;;;7.04;57.79;100817.47;5008116;28;20034;-80
2021/12/19 10:07:20;;;;;;;23.05;9.93;;;;;;;7.18;58.57;100816.59;5014473;28;20041;-78
2021/12/19 10:10:03;;;;;;;16.83;10.40;;;;;;;7.36;58.28;100803.84;5017977;28;20030;-79
2021/12/19 10:12:48;;;;;;;;;;;;;;;7.43;57.74;100794.47;5018095;28;20033;-80
2021/12/19 10:15:25;;;;;;;20.58;10.43;;;;;;;7.53;57.66;100795.53;5016516;28;19920;-80
2021/12/19 10:18:10;;;;;;;20.33;10.77;;;;;;;7.61;57.04;100788.72;5016583;28;20034;-79
2021/12/19 10:20:58;;;;;;;21.67;10.93;;;;;;;7.49;56.89;100778.81;5017035;28;20041;-79
2021/12/19 10:23:26;;;;;;;20.65;12.02;;;;;;;7.55;57.14;100767.72;5016474;28;20050;-79
2021/12/19 10:25:58;;;;;;;22.67;11.45;;;;;;;7.54;57.14;100763.34;4999368;28;20513;-79
2021/12/19 10:28:27;;;;;;;23.20;12.18;;;;;;;7.60;56.96;100746.88;5016361;28;20445;-79
2021/12/19 10:30:52;;;;;;;29.10;11.65;;;;;;;7.76;56.06;100737.81;5017053;28;20034;-80
2021/12/19 10:33:23;;;;;;;19.38;10.70;;;;;;;7.93;55.45;100729.47;5017093;28;20033;-79
2021/12/19 10:35:50;;;;;;;13.60;8.45;;;;;;;7.97;54.91;100728.31;5016033;28;20083;-80
2021/12/19 10:38:18;;;;;;;11.85;7.75;;;;;;;8.07;54.88;100726.72;5016554;28;20461;-80
2021/12/19 10:41:14;;;;;;;24.60;8.50;;;;;;;8.08;53.88;100709.66;5015865;28;20037;-79
2021/12/19 10:44:03;;;;;;;26.30;9.82;;;;;;;8.12;53.79;100703.13;5014867;28;20467;-79
2021/12/19 10:46:31;;;;;;;17.98;7.63;;;;;;;8.01;52.46;100697.69;5014286;28;20033;-80
2021/12/19 10:48:58;;;;;;;28.65;9.18;;;;;;;8.02;52.87;100712.75;5015020;28;20022;-79
2021/12/19 10:51:25;;;;;;;21.88;7.15;;;;;;;8.06;52.79;100695.53;5014488;28;20022;-79
2021/12/19 10:53:56;;;;;;;12.75;7.72;;;;;;;8.05;52.61;100696.47;5014654;28;20104;-79
2021/12/19 10:56:29;;;;;;;18.23;9.82;;;;;;;8.03;53.06;100690.38;5014762;28;20028;-78
2021/12/19 10:59:01;;;;;;;15.80;7.85;;;;;;;8.16;52.37;100688.56;5014522;28;20036;-79
2021/12/19 11:01:29;;;;;;;24.10;9.33;;;;;;;8.21;52.48;100675.69;5014623;28;20415;-79
2021/12/19 11:04:06;;;;;;;17.58;8.80;;;;;;;8.33;53.12;100666.81;5014084;28;20403;-79
2021/12/19 11:06:42;;;;;;;25.70;11.85;;;;;;;8.52;53.34;100661.84;5014369;28;20026;-79
2021/12/19 11:09:43;;;;;;;32.55;9.07;;;;;;;8.75;52.11;100654.78;5015174;28;20025;-79
2021/12/19 11:12:10;;;;;;;19.85;9.52;;;;;;;8.77;51.96;100640.31;4973946;28;20093;-79
2021/12/19 11:14:39;;;;;;;14.80;8.07;;;;;;;9.02;51.45;100646.56;5006140;28;20117;-79
2021/12/19 11:17:09;;;;;;;29.17;9.93;;;;;;;9.02;51.40;100646.56;5014134;28;20025;-78
2021/12/19 11:19:36;;;;;;;28.80;9.52;;;;;;;8.94;51.01;100636.38;5014326;28;20557;-79
2021/12/19 11:22:02;;;;;;;16.90;8.38;;;;;;;9.09;51.24;100637.06;5013848;28;20033;-79
2021/12/19 11:24:27;;;;;;;19.52;9.52;;;;;;;9.13;51.12;100622.47;5013918;28;20087;-79
2021/12/19 11:26:59;;;;;;;20.83;11.02;;;;;;;9.18;51.13;100623.81;5013388;28;20397;-79
2021/12/19 11:29:26;;;;;;;21.35;9.80;;;;;;;9.21;50.87;100625.41;5013817;28;20026;-80
2021/12/19 11:31:58;;;;;;;19.38;10.02;;;;;;;9.30;50.60;100614.81;5023536;28;20030;-80
2021/12/19 11:34:48;;;;;;;18.93;9.30;;;;;;;9.28;49.90;100621.28;5001115;28;20100;-80
2021/12/19 11:37:18;;;;;;;28.38;9.55;;;;;;;9.18;50.29;100609.53;5013343;28;20257;-80
2021/12/19 11:39:50;;;;;;;15.65;8.40;;;;;;;9.14;49.53;100608.06;5013580;28;20018;-80
2021/12/19 11:42:18;;;;;;;15.30;7.15;;;;;;;9.01;49.72;100607.28;4995694;28;20091;-77
2021/12/19 11:47:36;;;;;;;18.92;8.90;;;;;;;9.16;50.15;100585.53;5013572;28;20038;-79
2021/12/19 11:50:23;;;;;;;11.88;7.25;;;;;;;9.16;49.73;100579.28;5013766;28;20030;-79
2021/12/19 11:52:51;;;;;;;10.05;6.90;;;;;;;9.03;49.28;100575.81;5013918;28;20022;-80
2021/12/19 11:55:19;;;;;;;21.23;7.20;;;;;;;8.90;49.66;100567.84;4995866;28;20044;-79
2021/12/19 11:58:11;;;;;;;15.30;7.57;;;;;;;8.93;49.63;100572.97;5013504;28;20034;-79
2021/12/19 12:00:51;;;;;;;24.08;8.75;;;;;;;8.75;50.38;100561.81;4995228;28;20077;-80
2021/12/19 12:03:17;;;;;;;14.68;7.05;;;;;;;8.81;50.46;100573.06;5012941;28;20033;-80
2021/12/19 12:05:50;;;;;;;15.65;7.78;;;;;;;8.71;51.07;100554.97;5012933;28;20030;-79
2021/12/19 12:08:17;;;;;;;16.77;8.82;;;;;;;8.81;50.51;100535.53;4995180;28;20026;-78
2021/12/19 12:10:49;;;;;;;16.30;7.60;;;;;;;8.68;49.95;100541.78;5013104;28;20105;-79
2021/12/19 12:13:22;;;;;;;17.95;7.72;;;;;;;8.68;51.07;100531.06;5013170;28;20057;-81
2021/12/19 12:15:59;;;;;;;16.90;7.20;;;;;;;8.66;51.18;100538.38;5012810;28;20040;-78
2021/12/19 12:18:36;;;;;;;14.40;8.27;;;;;;;8.59;50.96;100514.84;5013531;28;20045;-80
2021/12/19 12:21:21;;;;;;;24.27;6.82;;;;;;;8.71;51.46;100508.53;5012753;28;20029;-80
2021/12/19 12:23:59;;;;;;;15.07;6.50;;;;;;;8.48;51.34;100506.72;4994878;28;20475;-79
2021/12/19 12:29:05;;;;;;;15.50;7.28;;;;;;;8.36;50.98;100497.78;5012931;28;20076;-79
2021/12/19 12:31:31;;;;;;;19.00;7.45;;;;;;;8.39;51.03;100497.56;5012631;28;20080;-79